sensor_id;sensor_type;location;lat;lon;timestamp;temperature;humidity
39493;DHT22;25176;51.060;3.720;2023-02-22T00:00:11;6.30;99.90
39493;DHT22;25176;51.060;3.720;2023-02-22T00:02:50;6.20;99.90
39493;DHT22;25176;51.060;3.720;2023-02-22T00:05:17;6.30;99.90
39493;DHT22;25176;51.060;3.720;2023-02-22T00:07:47;6.20;99.90
39493;DHT22;25176;51.060;3.720;2023-02-22T00:10:14;6.20;99.90
39493;DHT22;25176;51.060;3.720;2023-02-22T00:12:47;6.00;99.90
39493;DHT22;25176;51.060;3.720;2023-02-22T00:15:14;5.90;99.90
39493;DHT22;25176;51.060;3.720;2023-02-22T00:17:40;6.00;99.90
39493;DHT22;25176;51.060;3.720;2023-02-22T00:20:06;6.00;99.90
39493;DHT22;25176;51.060;3.720;2023-02-22T00:22:32;6.10;99.90
39493;DHT22;25176;51.060;3.720;2023-02-22T00:24:58;5.90;99.90
39493;DHT22;25176;51.060;3.720;2023-02-22T00:27:23;6.10;99.90
39493;DHT22;25176;51.060;3.720;2023-02-22T00:29:49;6.00;99.90
39493;DHT22;25176;51.060;3.720;2023-02-22T00:32:14;6.00;99.90
39493;DHT22;25176;51.060;3.720;2023-02-22T00:34:40;6.10;99.90
39493;DHT22;25176;51.060;3.720;2023-02-22T00:37:06;6.10;99.90
39493;DHT22;25176;51.060;3.720;2023-02-22T00:39:31;6.10;99.90
39493;DHT22;25176;51.060;3.720;2023-02-22T00:41:57;6.10;99.90
39493;DHT22;25176;51.060;3.720;2023-02-22T00:44:22;6.00;99.90
39493;DHT22;25176;51.060;3.720;2023-02-22T00:46:48;6.10;99.90
39493;DHT22;25176;51.060;3.720;2023-02-22T00:49:14;6.20;99.90
39493;DHT22;25176;51.060;3.720;2023-02-22T00:51:40;6.10;99.90
39493;DHT22;25176;51.060;3.720;2023-02-22T00:54:05;6.00;99.90
39493;DHT22;25176;51.060;3.720;2023-02-22T00:56:31;5.90;99.90
39493;DHT22;25176;51.060;3.720;2023-02-22T00:58:58;5.90;99.90
39493;DHT22;25176;51.060;3.720;2023-02-22T01:01:27;5.90;99.90
39493;DHT22;25176;51.060;3.720;2023-02-22T01:03:53;6.00;99.90
39493;DHT22;25176;51.060;3.720;2023-02-22T01:06:18;6.00;99.90
39493;DHT22;25176;51.060;3.720;2023-02-22T01:08:44;6.00;99.90
39493;DHT22;25176;51.060;3.720;2023-02-22T01:11:11;6.00;99.90
39493;DHT22;25176;51.060;3.720;2023-02-22T01:13:36;5.90;99.90
39493;DHT22;25176;51.060;3.720;2023-02-22T01:16:02;5.80;99.90
39493;DHT22;25176;51.060;3.720;2023-02-22T01:18:28;5.90;99.90
39493;DHT22;25176;51.060;3.720;2023-02-22T01:20:53;6.00;99.90
39493;DHT22;25176;51.060;3.720;2023-02-22T01:23:19;5.90;99.90
39493;DHT22;25176;51.060;3.720;2023-02-22T01:25:45;6.00;99.90
39493;DHT22;25176;51.060;3.720;2023-02-22T01:28:11;6.00;99.90
39493;DHT22;25176;51.060;3.720;2023-02-22T01:30:37;6.00;99.90
39493;DHT22;25176;51.060;3.720;2023-02-22T01:33:05;6.00;99.90
39493;DHT22;25176;51.060;3.720;2023-02-22T01:35:32;6.00;99.90
39493;DHT22;25176;51.060;3.720;2023-02-22T01:37:58;6.10;99.90
39493;DHT22;25176;51.060;3.720;2023-02-22T01:40:25;6.20;99.90
39493;DHT22;25176;51.060;3.720;2023-02-22T01:42:51;6.20;99.90
39493;DHT22;25176;51.060;3.720;2023-02-22T01:48:03;6.40;99.90
39493;DHT22;25176;51.060;3.720;2023-02-22T01:50:29;6.40;99.90
39493;DHT22;25176;51.060;3.720;2023-02-22T01:52:56;6.40;99.90
39493;DHT22;25176;51.060;3.720;2023-02-22T01:55:21;6.50;99.90
39493;DHT22;25176;51.060;3.720;2023-02-22T01:57:47;6.50;99.90
39493;DHT22;25176;51.060;3.720;2023-02-22T02:00:14;6.40;99.90
39493;DHT22;25176;51.060;3.720;2023-02-22T02:02:44;6.60;99.90
39493;DHT22;25176;51.060;3.720;2023-02-22T02:05:11;6.70;99.90
39493;DHT22;25176;51.060;3.720;2023-02-22T02:07:37;6.50;99.90
39493;DHT22;25176;51.060;3.720;2023-02-22T02:10:04;6.40;99.90
39493;DHT22;25176;51.060;3.720;2023-02-22T02:12:32;6.40;99.90
39493;DHT22;25176;51.060;3.720;2023-02-22T02:17:41;6.50;99.90
39493;DHT22;25176;51.060;3.720;2023-02-22T02:20:21;6.50;99.90
39493;DHT22;25176;51.060;3.720;2023-02-22T02:25:41;6.30;99.90
39493;DHT22;25176;51.060;3.720;2023-02-22T02:39:23;6.30;99.90
39493;DHT22;25176;51.060;3.720;2023-02-22T02:42:02;6.40;99.90
39493;DHT22;25176;51.060;3.720;2023-02-22T02:44:30;6.40;99.90
39493;DHT22;25176;51.060;3.720;2023-02-22T02:47:09;6.10;99.90
39493;DHT22;25176;51.060;3.720;2023-02-22T02:49:45;6.10;99.90
39493;DHT22;25176;51.060;3.720;2023-02-22T02:52:12;6.10;99.90
39493;DHT22;25176;51.060;3.720;2023-02-22T02:54:40;6.20;99.90
39493;DHT22;25176;51.060;3.720;2023-02-22T02:57:06;6.30;99.90
39493;DHT22;25176;51.060;3.720;2023-02-22T02:59:35;6.30;99.90
39493;DHT22;25176;51.060;3.720;2023-02-22T03:02:19;6.20;99.90
39493;DHT22;25176;51.060;3.720;2023-02-22T03:07:37;6.20;99.90
39493;DHT22;25176;51.060;3.720;2023-02-22T03:10:24;6.30;99.90
39493;DHT22;25176;51.060;3.720;2023-02-22T03:15:18;6.30;99.90
39493;DHT22;25176;51.060;3.720;2023-02-22T03:22:44;6.40;99.90
39493;DHT22;25176;51.060;3.720;2023-02-22T03:25:16;6.50;99.90
39493;DHT22;25176;51.060;3.720;2023-02-22T03:27:51;6.40;99.90
39493;DHT22;25176;51.060;3.720;2023-02-22T03:30:22;6.50;99.90
39493;DHT22;25176;51.060;3.720;2023-02-22T03:32:50;6.40;99.90
39493;DHT22;25176;51.060;3.720;2023-02-22T03:35:21;6.30;99.90
39493;DHT22;25176;51.060;3.720;2023-02-22T03:37:49;6.40;99.90
39493;DHT22;25176;51.060;3.720;2023-02-22T03:40:19;6.40;99.90
39493;DHT22;25176;51.060;3.720;2023-02-22T03:42:51;6.40;99.90
39493;DHT22;25176;51.060;3.720;2023-02-22T03:45:18;6.40;99.90
39493;DHT22;25176;51.060;3.720;2023-02-22T03:47:48;6.30;99.90
39493;DHT22;25176;51.060;3.720;2023-02-22T03:50:19;6.20;99.90
39493;DHT22;25176;51.060;3.720;2023-02-22T03:52:45;6.30;99.90
39493;DHT22;25176;51.060;3.720;2023-02-22T03:55:11;6.30;99.90
39493;DHT22;25176;51.060;3.720;2023-02-22T03:57:38;6.40;99.90
39493;DHT22;25176;51.060;3.720;2023-02-22T04:00:07;6.40;99.90
39493;DHT22;25176;51.060;3.720;2023-02-22T04:02:33;6.40;99.90
39493;DHT22;25176;51.060;3.720;2023-02-22T04:04:58;6.40;99.90
39493;DHT22;25176;51.060;3.720;2023-02-22T04:07:24;6.40;99.90
39493;DHT22;25176;51.060;3.720;2023-02-22T04:09:49;6.40;99.90
39493;DHT22;25176;51.060;3.720;2023-02-22T04:12:15;6.20;99.90
39493;DHT22;25176;51.060;3.720;2023-02-22T04:14:41;6.30;99.90
39493;DHT22;25176;51.060;3.720;2023-02-22T04:17:06;6.20;99.90
39493;DHT22;25176;51.060;3.720;2023-02-22T04:19:32;6.10;99.90
39493;DHT22;25176;51.060;3.720;2023-02-22T04:21:57;6.00;99.90
39493;DHT22;25176;51.060;3.720;2023-02-22T04:24:23;6.20;99.90
39493;DHT22;25176;51.060;3.720;2023-02-22T04:26:48;6.10;99.90
39493;DHT22;25176;51.060;3.720;2023-02-22T04:29:14;6.10;99.90
39493;DHT22;25176;51.060;3.720;2023-02-22T04:31:40;6.10;99.90
39493;DHT22;25176;51.060;3.720;2023-02-22T04:34:05;6.00;99.90
39493;DHT22;25176;51.060;3.720;2023-02-22T04:36:31;6.00;99.90
39493;DHT22;25176;51.060;3.720;2023-02-22T04:38:57;5.90;99.90
39493;DHT22;25176;51.060;3.720;2023-02-22T04:41:22;5.90;99.90
39493;DHT22;25176;51.060;3.720;2023-02-22T04:43:48;5.90;99.90
39493;DHT22;25176;51.060;3.720;2023-02-22T04:46:14;5.90;99.90
39493;DHT22;25176;51.060;3.720;2023-02-22T04:48:39;6.00;99.90
39493;DHT22;25176;51.060;3.720;2023-02-22T04:51:05;6.10;99.90
39493;DHT22;25176;51.060;3.720;2023-02-22T04:53:30;6.00;99.90
39493;DHT22;25176;51.060;3.720;2023-02-22T04:55:56;6.00;99.90
39493;DHT22;25176;51.060;3.720;2023-02-22T04:58:21;6.10;99.90
39493;DHT22;25176;51.060;3.720;2023-02-22T05:00:47;6.20;99.90
39493;DHT22;25176;51.060;3.720;2023-02-22T05:03:13;6.20;99.90
39493;DHT22;25176;51.060;3.720;2023-02-22T05:05:38;6.20;99.90
39493;DHT22;25176;51.060;3.720;2023-02-22T05:08:04;6.30;99.90
39493;DHT22;25176;51.060;3.720;2023-02-22T05:10:29;6.20;99.90
39493;DHT22;25176;51.060;3.720;2023-02-22T05:12:55;6.20;99.90
39493;DHT22;25176;51.060;3.720;2023-02-22T05:15:21;6.20;99.90
39493;DHT22;25176;51.060;3.720;2023-02-22T05:17:47;6.30;99.90
39493;DHT22;25176;51.060;3.720;2023-02-22T05:22:47;6.20;99.90
39493;DHT22;25176;51.060;3.720;2023-02-22T05:25:12;6.10;99.90
39493;DHT22;25176;51.060;3.720;2023-02-22T05:27:38;6.10;99.90
39493;DHT22;25176;51.060;3.720;2023-02-22T05:30:04;6.00;99.90
39493;DHT22;25176;51.060;3.720;2023-02-22T05:32:29;6.00;99.90
39493;DHT22;25176;51.060;3.720;2023-02-22T05:34:55;6.00;99.90
39493;DHT22;25176;51.060;3.720;2023-02-22T05:37:20;6.10;99.90
39493;DHT22;25176;51.060;3.720;2023-02-22T05:39:46;6.00;99.90
39493;DHT22;25176;51.060;3.720;2023-02-22T05:42:11;6.00;99.90
39493;DHT22;25176;51.060;3.720;2023-02-22T05:44:37;6.00;99.90
39493;DHT22;25176;51.060;3.720;2023-02-22T05:47:02;6.00;99.90
39493;DHT22;25176;51.060;3.720;2023-02-22T05:49:28;6.20;99.90
39493;DHT22;25176;51.060;3.720;2023-02-22T05:51:54;6.20;99.90
39493;DHT22;25176;51.060;3.720;2023-02-22T05:54:23;6.20;99.90
39493;DHT22;25176;51.060;3.720;2023-02-22T05:56:49;6.20;99.90
39493;DHT22;25176;51.060;3.720;2023-02-22T05:59:14;6.20;99.90
39493;DHT22;25176;51.060;3.720;2023-02-22T06:01:40;6.20;99.90
39493;DHT22;25176;51.060;3.720;2023-02-22T06:04:06;6.20;99.90
39493;DHT22;25176;51.060;3.720;2023-02-22T06:06:31;6.20;99.90
39493;DHT22;25176;51.060;3.720;2023-02-22T06:08:57;6.30;99.90
39493;DHT22;25176;51.060;3.720;2023-02-22T06:11:22;6.30;99.90
39493;DHT22;25176;51.060;3.720;2023-02-22T06:13:49;6.30;99.90
39493;DHT22;25176;51.060;3.720;2023-02-22T06:16:15;6.50;99.90
39493;DHT22;25176;51.060;3.720;2023-02-22T06:18:41;6.30;99.90
39493;DHT22;25176;51.060;3.720;2023-02-22T06:21:06;6.30;99.90
39493;DHT22;25176;51.060;3.720;2023-02-22T06:23:32;6.10;99.90
39493;DHT22;25176;51.060;3.720;2023-02-22T06:25:58;6.20;99.90
39493;DHT22;25176;51.060;3.720;2023-02-22T06:28:23;6.20;99.90
39493;DHT22;25176;51.060;3.720;2023-02-22T06:30:49;6.10;99.90
39493;DHT22;25176;51.060;3.720;2023-02-22T06:33:14;6.10;99.90
39493;DHT22;25176;51.060;3.720;2023-02-22T06:35:40;6.00;99.90
39493;DHT22;25176;51.060;3.720;2023-02-22T06:38:06;6.10;99.90
39493;DHT22;25176;51.060;3.720;2023-02-22T06:40:31;6.20;99.90
39493;DHT22;25176;51.060;3.720;2023-02-22T06:42:57;6.10;99.90
39493;DHT22;25176;51.060;3.720;2023-02-22T06:45:22;6.20;99.90
39493;DHT22;25176;51.060;3.720;2023-02-22T06:47:48;6.20;99.90
39493;DHT22;25176;51.060;3.720;2023-02-22T06:50:24;6.10;99.90
39493;DHT22;25176;51.060;3.720;2023-02-22T06:52:50;6.10;99.90
39493;DHT22;25176;51.060;3.720;2023-02-22T06:55:17;6.00;99.90
39493;DHT22;25176;51.060;3.720;2023-02-22T06:57:43;6.00;99.90
39493;DHT22;25176;51.060;3.720;2023-02-22T07:00:08;6.00;99.90
39493;DHT22;25176;51.060;3.720;2023-02-22T07:02:34;6.00;99.90
39493;DHT22;25176;51.060;3.720;2023-02-22T07:04:59;6.00;99.90
39493;DHT22;25176;51.060;3.720;2023-02-22T07:07:25;6.10;99.90
39493;DHT22;25176;51.060;3.720;2023-02-22T07:09:50;6.20;99.90
39493;DHT22;25176;51.060;3.720;2023-02-22T07:12:16;6.30;99.90
39493;DHT22;25176;51.060;3.720;2023-02-22T07:14:41;6.30;99.90
39493;DHT22;25176;51.060;3.720;2023-02-22T07:17:07;6.30;99.90
39493;DHT22;25176;51.060;3.720;2023-02-22T07:19:32;6.40;99.90
39493;DHT22;25176;51.060;3.720;2023-02-22T07:21:58;6.50;99.90
39493;DHT22;25176;51.060;3.720;2023-02-22T07:24:24;6.60;99.90
39493;DHT22;25176;51.060;3.720;2023-02-22T07:26:49;6.50;99.90
39493;DHT22;25176;51.060;3.720;2023-02-22T07:29:15;6.50;99.90
39493;DHT22;25176;51.060;3.720;2023-02-22T07:31:40;6.60;99.90
39493;DHT22;25176;51.060;3.720;2023-02-22T07:34:06;6.70;99.90
39493;DHT22;25176;51.060;3.720;2023-02-22T07:36:31;6.70;99.90
39493;DHT22;25176;51.060;3.720;2023-02-22T07:38:57;6.70;99.90
39493;DHT22;25176;51.060;3.720;2023-02-22T07:41:22;6.70;99.90
39493;DHT22;25176;51.060;3.720;2023-02-22T07:43:48;6.70;99.90
39493;DHT22;25176;51.060;3.720;2023-02-22T07:46:13;6.80;99.90
39493;DHT22;25176;51.060;3.720;2023-02-22T07:48:39;7.00;99.90
39493;DHT22;25176;51.060;3.720;2023-02-22T07:51:04;7.20;99.90
39493;DHT22;25176;51.060;3.720;2023-02-22T07:53:31;7.30;99.90
39493;DHT22;25176;51.060;3.720;2023-02-22T07:55:58;7.30;99.90
39493;DHT22;25176;51.060;3.720;2023-02-22T07:58:24;7.50;99.90
39493;DHT22;25176;51.060;3.720;2023-02-22T08:00:50;7.70;99.90
39493;DHT22;25176;51.060;3.720;2023-02-22T08:03:17;7.70;99.90
39493;DHT22;25176;51.060;3.720;2023-02-22T08:05:47;7.90;99.90
39493;DHT22;25176;51.060;3.720;2023-02-22T08:08:13;8.00;99.90
39493;DHT22;25176;51.060;3.720;2023-02-22T08:10:40;8.10;99.90
39493;DHT22;25176;51.060;3.720;2023-02-22T08:13:05;8.10;99.90
39493;DHT22;25176;51.060;3.720;2023-02-22T08:15:34;8.20;99.90
39493;DHT22;25176;51.060;3.720;2023-02-22T08:18:01;8.30;99.90
39493;DHT22;25176;51.060;3.720;2023-02-22T08:20:27;8.20;99.90
39493;DHT22;25176;51.060;3.720;2023-02-22T08:22:53;8.40;99.90
39493;DHT22;25176;51.060;3.720;2023-02-22T08:25:19;8.50;99.90
39493;DHT22;25176;51.060;3.720;2023-02-22T08:27:45;8.70;99.90
39493;DHT22;25176;51.060;3.720;2023-02-22T08:30:18;9.00;99.90
39493;DHT22;25176;51.060;3.720;2023-02-22T08:32:44;9.10;99.90
39493;DHT22;25176;51.060;3.720;2023-02-22T08:35:10;9.30;99.90
39493;DHT22;25176;51.060;3.720;2023-02-22T08:37:40;9.30;99.90
39493;DHT22;25176;51.060;3.720;2023-02-22T08:40:06;9.20;99.90
39493;DHT22;25176;51.060;3.720;2023-02-22T08:42:32;9.20;99.90
39493;DHT22;25176;51.060;3.720;2023-02-22T08:44:57;9.20;99.90
39493;DHT22;25176;51.060;3.720;2023-02-22T08:47:23;9.30;99.90
39493;DHT22;25176;51.060;3.720;2023-02-22T08:49:49;9.40;99.90
39493;DHT22;25176;51.060;3.720;2023-02-22T08:52:15;9.70;99.90
39493;DHT22;25176;51.060;3.720;2023-02-22T08:54:40;9.80;99.90
39493;DHT22;25176;51.060;3.720;2023-02-22T08:57:05;10.00;99.90
39493;DHT22;25176;51.060;3.720;2023-02-22T08:59:31;10.10;99.90
39493;DHT22;25176;51.060;3.720;2023-02-22T09:01:56;10.20;99.90
39493;DHT22;25176;51.060;3.720;2023-02-22T09:04:22;10.30;99.90
39493;DHT22;25176;51.060;3.720;2023-02-22T09:06:47;10.30;99.90
39493;DHT22;25176;51.060;3.720;2023-02-22T09:09:16;10.30;99.90
39493;DHT22;25176;51.060;3.720;2023-02-22T09:11:43;10.50;99.90
39493;DHT22;25176;51.060;3.720;2023-02-22T09:14:08;10.50;99.90
39493;DHT22;25176;51.060;3.720;2023-02-22T09:16:34;10.50;99.90
39493;DHT22;25176;51.060;3.720;2023-02-22T09:19:02;10.40;99.90
39493;DHT22;25176;51.060;3.720;2023-02-22T09:21:28;10.60;99.90
39493;DHT22;25176;51.060;3.720;2023-02-22T09:23:53;10.50;99.90
39493;DHT22;25176;51.060;3.720;2023-02-22T09:26:19;10.40;99.90
39493;DHT22;25176;51.060;3.720;2023-02-22T09:28:48;10.60;99.90
39493;DHT22;25176;51.060;3.720;2023-02-22T09:31:14;10.60;99.90
39493;DHT22;25176;51.060;3.720;2023-02-22T09:33:40;10.80;99.90
39493;DHT22;25176;51.060;3.720;2023-02-22T09:36:05;11.00;99.90
39493;DHT22;25176;51.060;3.720;2023-02-22T09:38:31;11.10;99.90
39493;DHT22;25176;51.060;3.720;2023-02-22T09:43:44;11.40;99.90
39493;DHT22;25176;51.060;3.720;2023-02-22T09:49:31;11.40;99.90
39493;DHT22;25176;51.060;3.720;2023-02-22T09:51:36;11.40;99.90
39493;DHT22;25176;51.060;3.720;2023-02-22T09:54:03;11.20;99.90
39493;DHT22;25176;51.060;3.720;2023-02-22T09:56:30;11.20;99.90
39493;DHT22;25176;51.060;3.720;2023-02-22T09:58:59;11.40;99.90
39493;DHT22;25176;51.060;3.720;2023-02-22T10:01:44;11.50;99.90
39493;DHT22;25176;51.060;3.720;2023-02-22T10:06:46;11.20;99.90
39493;DHT22;25176;51.060;3.720;2023-02-22T10:09:16;11.20;99.90
39493;DHT22;25176;51.060;3.720;2023-02-22T10:14:28;11.00;99.90
39493;DHT22;25176;51.060;3.720;2023-02-22T10:19:51;11.70;99.90
39493;DHT22;25176;51.060;3.720;2023-02-22T10:25:00;11.20;99.90
39493;DHT22;25176;51.060;3.720;2023-02-22T10:29:54;11.30;99.90
39493;DHT22;25176;51.060;3.720;2023-02-22T10:32:23;11.50;99.90
39493;DHT22;25176;51.060;3.720;2023-02-22T10:34:50;11.50;99.90
39493;DHT22;25176;51.060;3.720;2023-02-22T10:39:42;12.10;99.90
39493;DHT22;25176;51.060;3.720;2023-02-22T10:42:08;12.20;99.90
39493;DHT22;25176;51.060;3.720;2023-02-22T10:44:34;12.20;99.90
39493;DHT22;25176;51.060;3.720;2023-02-22T10:47:00;12.40;99.90
39493;DHT22;25176;51.060;3.720;2023-02-22T10:49:27;12.50;99.90
39493;DHT22;25176;51.060;3.720;2023-02-22T10:52:01;12.40;99.90
39493;DHT22;25176;51.060;3.720;2023-02-22T10:54:29;12.40;99.90
39493;DHT22;25176;51.060;3.720;2023-02-22T10:56:56;12.30;99.90
39493;DHT22;25176;51.060;3.720;2023-02-22T10:59:26;11.90;99.90
39493;DHT22;25176;51.060;3.720;2023-02-22T11:01:51;12.00;99.90
39493;DHT22;25176;51.060;3.720;2023-02-22T11:04:18;12.00;99.90
39493;DHT22;25176;51.060;3.720;2023-02-22T11:06:47;12.10;99.90
39493;DHT22;25176;51.060;3.720;2023-02-22T11:09:16;12.10;99.90
39493;DHT22;25176;51.060;3.720;2023-02-22T11:11:47;12.10;99.90
39493;DHT22;25176;51.060;3.720;2023-02-22T11:14:34;12.20;99.90
39493;DHT22;25176;51.060;3.720;2023-02-22T11:16:59;12.00;99.90
39493;DHT22;25176;51.060;3.720;2023-02-22T11:19:29;12.20;99.90
39493;DHT22;25176;51.060;3.720;2023-02-22T11:21:56;12.50;99.90
39493;DHT22;25176;51.060;3.720;2023-02-22T11:24:22;12.40;99.90
39493;DHT22;25176;51.060;3.720;2023-02-22T11:26:52;12.30;99.90
39493;DHT22;25176;51.060;3.720;2023-02-22T11:29:32;12.20;99.90
39493;DHT22;25176;51.060;3.720;2023-02-22T11:32:15;12.10;99.90
39493;DHT22;25176;51.060;3.720;2023-02-22T11:34:45;12.20;99.90
39493;DHT22;25176;51.060;3.720;2023-02-22T11:42:36;12.50;99.90
39493;DHT22;25176;51.060;3.720;2023-02-22T11:45:15;12.60;99.90
39493;DHT22;25176;51.060;3.720;2023-02-22T11:50:20;12.30;99.90
39493;DHT22;25176;51.060;3.720;2023-02-22T11:52:48;12.30;99.90
39493;DHT22;25176;51.060;3.720;2023-02-22T11:55:35;12.10;99.90
39493;DHT22;25176;51.060;3.720;2023-02-22T11:58:19;12.10;99.90
39493;DHT22;25176;51.060;3.720;2023-02-22T12:00:55;12.20;99.90
39493;DHT22;25176;51.060;3.720;2023-02-22T12:06:09;12.20;99.90
39493;DHT22;25176;51.060;3.720;2023-02-22T12:11:26;11.90;99.90
39493;DHT22;25176;51.060;3.720;2023-02-22T12:13:59;11.90;99.90
39493;DHT22;25176;51.060;3.720;2023-02-22T12:16:29;12.00;99.90
39493;DHT22;25176;51.060;3.720;2023-02-22T12:21:41;11.90;99.90
39493;DHT22;25176;51.060;3.720;2023-02-22T12:24:18;11.90;99.90
39493;DHT22;25176;51.060;3.720;2023-02-22T12:26:46;12.00;99.90
39493;DHT22;25176;51.060;3.720;2023-02-22T12:31:59;11.90;99.90
39493;DHT22;25176;51.060;3.720;2023-02-22T12:36:54;12.10;99.90
39493;DHT22;25176;51.060;3.720;2023-02-22T12:39:24;12.10;99.90
39493;DHT22;25176;51.060;3.720;2023-02-22T12:41:53;11.80;99.90
39493;DHT22;25176;51.060;3.720;2023-02-22T12:44:20;11.90;99.90
39493;DHT22;25176;51.060;3.720;2023-02-22T12:46:50;11.90;99.90
39493;DHT22;25176;51.060;3.720;2023-02-22T12:52:07;11.80;99.90
39493;DHT22;25176;51.060;3.720;2023-02-22T12:54:42;11.80;99.90
39493;DHT22;25176;51.060;3.720;2023-02-22T12:57:14;11.70;99.90
39493;DHT22;25176;51.060;3.720;2023-02-22T12:59:58;11.40;99.90
39493;DHT22;25176;51.060;3.720;2023-02-22T13:04:50;11.40;99.90
39493;DHT22;25176;51.060;3.720;2023-02-22T13:12:39;11.10;99.90
39493;DHT22;25176;51.060;3.720;2023-02-22T13:15:18;11.00;99.90
39493;DHT22;25176;51.060;3.720;2023-02-22T13:30:14;11.20;99.90
39493;DHT22;25176;51.060;3.720;2023-02-22T13:32:50;11.20;99.90
39493;DHT22;25176;51.060;3.720;2023-02-22T13:53:31;11.30;99.90
39493;DHT22;25176;51.060;3.720;2023-02-22T13:55:59;11.10;99.90
39493;DHT22;25176;51.060;3.720;2023-02-22T13:58:25;11.10;99.90
39493;DHT22;25176;51.060;3.720;2023-02-22T14:00:51;11.20;99.90
39493;DHT22;25176;51.060;3.720;2023-02-22T14:03:30;11.20;99.90
39493;DHT22;25176;51.060;3.720;2023-02-22T14:06:01;11.20;99.90
39493;DHT22;25176;51.060;3.720;2023-02-22T14:10:56;11.20;99.90
39493;DHT22;25176;51.060;3.720;2023-02-22T14:13:25;11.20;99.90
39493;DHT22;25176;51.060;3.720;2023-02-22T14:21:08;10.90;99.90
39493;DHT22;25176;51.060;3.720;2023-02-22T14:23:41;11.00;99.90
39493;DHT22;25176;51.060;3.720;2023-02-22T14:26:18;11.10;99.90
39493;DHT22;25176;51.060;3.720;2023-02-22T14:28:53;11.10;99.90
39493;DHT22;25176;51.060;3.720;2023-02-22T14:31:24;11.10;99.90
39493;DHT22;25176;51.060;3.720;2023-02-22T14:34:00;11.20;99.90
39493;DHT22;25176;51.060;3.720;2023-02-22T14:41:36;11.30;99.90
39493;DHT22;25176;51.060;3.720;2023-02-22T14:44:03;11.40;99.90
39493;DHT22;25176;51.060;3.720;2023-02-22T14:46:31;11.40;99.90
39493;DHT22;25176;51.060;3.720;2023-02-22T14:49:02;11.50;99.90
39493;DHT22;25176;51.060;3.720;2023-02-22T14:51:40;11.50;99.90
39493;DHT22;25176;51.060;3.720;2023-02-22T14:54:08;11.40;99.90
39493;DHT22;25176;51.060;3.720;2023-02-22T14:56:53;11.40;99.90
39493;DHT22;25176;51.060;3.720;2023-02-22T14:59:21;11.40;99.90
39493;DHT22;25176;51.060;3.720;2023-02-22T15:01:48;11.40;99.90
39493;DHT22;25176;51.060;3.720;2023-02-22T15:04:21;11.30;99.90
39493;DHT22;25176;51.060;3.720;2023-02-22T15:06:47;11.30;99.90
39493;DHT22;25176;51.060;3.720;2023-02-22T15:09:15;11.40;99.90
39493;DHT22;25176;51.060;3.720;2023-02-22T15:14:28;11.40;99.90
39493;DHT22;25176;51.060;3.720;2023-02-22T15:16:56;11.40;99.90
39493;DHT22;25176;51.060;3.720;2023-02-22T15:19:24;11.30;99.90
39493;DHT22;25176;51.060;3.720;2023-02-22T15:21:51;11.30;99.90
39493;DHT22;25176;51.060;3.720;2023-02-22T15:24:25;11.40;99.90
39493;DHT22;25176;51.060;3.720;2023-02-22T15:26:51;11.40;99.90
39493;DHT22;25176;51.060;3.720;2023-02-22T15:29:19;11.30;99.90
39493;DHT22;25176;51.060;3.720;2023-02-22T15:31:45;11.30;99.90
39493;DHT22;25176;51.060;3.720;2023-02-22T15:36:40;11.30;99.90
39493;DHT22;25176;51.060;3.720;2023-02-22T15:39:05;11.40;99.90
39493;DHT22;25176;51.060;3.720;2023-02-22T15:41:41;11.30;99.90
39493;DHT22;25176;51.060;3.720;2023-02-22T15:44:08;11.30;99.90
39493;DHT22;25176;51.060;3.720;2023-02-22T15:46:36;11.30;99.90
39493;DHT22;25176;51.060;3.720;2023-02-22T15:51:40;11.40;99.90
39493;DHT22;25176;51.060;3.720;2023-02-22T15:54:06;11.50;99.90
39493;DHT22;25176;51.060;3.720;2023-02-22T15:56:33;11.50;99.90
39493;DHT22;25176;51.060;3.720;2023-02-22T15:59:01;11.40;99.90
39493;DHT22;25176;51.060;3.720;2023-02-22T16:01:29;11.30;99.90
39493;DHT22;25176;51.060;3.720;2023-02-22T16:04:01;11.20;99.90
39493;DHT22;25176;51.060;3.720;2023-02-22T16:06:32;11.20;99.90
39493;DHT22;25176;51.060;3.720;2023-02-22T16:09:21;11.20;99.90
39493;DHT22;25176;51.060;3.720;2023-02-22T16:11:50;11.30;99.90
39493;DHT22;25176;51.060;3.720;2023-02-22T16:19:38;11.30;99.90
39493;DHT22;25176;51.060;3.720;2023-02-22T16:22:05;11.40;99.90
39493;DHT22;25176;51.060;3.720;2023-02-22T16:24:38;11.40;99.90
39493;DHT22;25176;51.060;3.720;2023-02-22T16:29:40;11.50;99.90
39493;DHT22;25176;51.060;3.720;2023-02-22T16:32:05;11.50;99.90
39493;DHT22;25176;51.060;3.720;2023-02-22T16:34:31;11.50;99.90
39493;DHT22;25176;51.060;3.720;2023-02-22T16:36:57;11.60;99.90
39493;DHT22;25176;51.060;3.720;2023-02-22T16:39:29;11.50;99.90
39493;DHT22;25176;51.060;3.720;2023-02-22T16:42:02;11.60;99.90
39493;DHT22;25176;51.060;3.720;2023-02-22T16:44:28;11.60;99.90
39493;DHT22;25176;51.060;3.720;2023-02-22T16:46:54;11.70;99.90
39493;DHT22;25176;51.060;3.720;2023-02-22T16:49:20;11.70;99.90
39493;DHT22;25176;51.060;3.720;2023-02-22T16:51:55;11.60;99.90
39493;DHT22;25176;51.060;3.720;2023-02-22T16:54:27;11.50;99.90
39493;DHT22;25176;51.060;3.720;2023-02-22T16:56:54;11.50;99.90
39493;DHT22;25176;51.060;3.720;2023-02-22T16:59:20;11.50;99.90
39493;DHT22;25176;51.060;3.720;2023-02-22T17:01:46;11.50;99.90
39493;DHT22;25176;51.060;3.720;2023-02-22T17:04:12;11.60;99.90
39493;DHT22;25176;51.060;3.720;2023-02-22T17:06:39;11.50;99.90
39493;DHT22;25176;51.060;3.720;2023-02-22T17:09:04;11.60;99.90
39493;DHT22;25176;51.060;3.720;2023-02-22T17:11:30;11.60;99.90
39493;DHT22;25176;51.060;3.720;2023-02-22T17:13:55;11.60;99.90
39493;DHT22;25176;51.060;3.720;2023-02-22T17:16:21;11.70;99.90
39493;DHT22;25176;51.060;3.720;2023-02-22T17:18:47;11.60;99.90
39493;DHT22;25176;51.060;3.720;2023-02-22T17:21:12;11.60;99.90
39493;DHT22;25176;51.060;3.720;2023-02-22T17:23:38;11.50;99.90
39493;DHT22;25176;51.060;3.720;2023-02-22T17:26:04;11.50;99.90
39493;DHT22;25176;51.060;3.720;2023-02-22T17:28:29;11.50;99.90
39493;DHT22;25176;51.060;3.720;2023-02-22T17:30:56;11.40;99.90
39493;DHT22;25176;51.060;3.720;2023-02-22T17:33:26;11.40;99.90
39493;DHT22;25176;51.060;3.720;2023-02-22T17:35:53;11.40;99.90
39493;DHT22;25176;51.060;3.720;2023-02-22T17:38:19;11.30;99.90
39493;DHT22;25176;51.060;3.720;2023-02-22T17:40:45;11.20;99.90
39493;DHT22;25176;51.060;3.720;2023-02-22T17:43:19;11.20;99.90
39493;DHT22;25176;51.060;3.720;2023-02-22T17:45:44;11.20;99.90
39493;DHT22;25176;51.060;3.720;2023-02-22T17:48:10;11.40;99.90
39493;DHT22;25176;51.060;3.720;2023-02-22T17:50:37;11.40;99.90
39493;DHT22;25176;51.060;3.720;2023-02-22T17:53:02;11.40;99.90
39493;DHT22;25176;51.060;3.720;2023-02-22T17:55:28;11.60;99.90
39493;DHT22;25176;51.060;3.720;2023-02-22T17:57:55;11.50;99.90
39493;DHT22;25176;51.060;3.720;2023-02-22T18:00:24;11.40;99.90
39493;DHT22;25176;51.060;3.720;2023-02-22T18:03:04;11.40;99.90
39493;DHT22;25176;51.060;3.720;2023-02-22T18:05:31;11.30;99.90
39493;DHT22;25176;51.060;3.720;2023-02-22T18:07:59;11.30;99.90